Hinton, Oklahoma
Current Conditions -  °F | °C
As of 12:35 AM on Wednesday 26 Nov 2014 (Local Time) from KOJA Reporting Station
Clear Clear  
Wind Chill: 38°   Ceiling: Unl
Heat Index: 41°   Visibility: 10mi
Dew Point: 30°   Wind: 5mph
Humidity: 65%   Direction: 210°SSW
Pressure: 29.96"   Gusts: NA
Location:  35.47°N, 98.36°W
Report Text: KOJA 260635Z AUTO 21004KT 10SM CLR 05/M01 A2996 RMK AO2
Loading
Personal Weather Stations






























Interactive Weather Map New forecast layout! Learn more

10-Day Weather Forecast

Advertisements
Track Severe Weather on mobile